createdAt,value
2017-10-14T00:00:51.327Z,94
2017-10-14T00:01:53.767Z,94
2017-10-14T00:02:56.206Z,94
2017-10-14T00:03:58.640Z,94
2017-10-14T00:05:01.069Z,94
2017-10-14T00:06:03.533Z,94
2017-10-14T00:07:05.941Z,94
2017-10-14T00:08:08.370Z,94
2017-10-14T00:09:10.813Z,94
2017-10-14T00:10:13.602Z,94
2017-10-14T00:11:16.044Z,94
2017-10-14T00:12:18.510Z,94
2017-10-14T00:13:20.956Z,94
2017-10-14T00:14:23.409Z,94
2017-10-14T00:15:25.832Z,94
2017-10-14T00:16:28.645Z,94
2017-10-14T00:17:31.075Z,94
2017-10-14T00:18:33.499Z,94
2017-10-14T00:19:35.932Z,94
2017-10-14T00:20:38.355Z,94
2017-10-14T00:21:40.791Z,94
2017-10-14T00:22:43.242Z,94
2017-10-14T00:23:45.673Z,94
2017-10-14T00:24:48.106Z,94
2017-10-14T00:25:50.545Z,94
2017-10-14T00:26:52.975Z,94
2017-10-14T00:27:55.403Z,94
2017-10-14T00:28:57.864Z,94
2017-10-14T00:30:00.648Z,94
2017-10-14T00:31:03.090Z,94
2017-10-14T00:32:05.522Z,94
2017-10-14T00:33:07.948Z,94
2017-10-14T00:34:10.388Z,94
2017-10-14T00:35:12.820Z,94
2017-10-14T00:36:15.252Z,94
2017-10-14T00:37:17.696Z,94
2017-10-14T00:38:20.124Z,94
2017-10-14T00:39:22.576Z,94
2017-10-14T00:40:25.014Z,94
2017-10-14T00:41:27.433Z,94
2017-10-14T00:42:29.868Z,95
2017-10-14T00:43:32.307Z,95
2017-10-14T00:44:34.738Z,95
2017-10-14T00:45:37.184Z,95
2017-10-14T00:46:39.608Z,95
2017-10-14T00:47:42.401Z,95
2017-10-14T00:48:44.844Z,95
2017-10-14T00:49:47.278Z,95
2017-10-14T00:50:49.717Z,95
2017-10-14T00:51:52.156Z,95
2017-10-14T00:52:54.592Z,95
2017-10-14T00:53:57.031Z,95
2017-10-14T00:54:59.468Z,95
2017-10-14T00:56:01.892Z,95
2017-10-14T00:57:04.335Z,95
2017-10-14T00:58:06.768Z,95
2017-10-14T00:59:09.208Z,95
2017-10-14T01:00:11.637Z,95
2017-10-14T01:01:14.078Z,95
2017-10-14T01:02:16.508Z,95
2017-10-14T01:03:19.350Z,95
2017-10-14T01:04:21.780Z,95
2017-10-14T01:05:24.213Z,95
2017-10-14T01:06:26.647Z,95
2017-10-14T01:07:29.085Z,95
2017-10-14T01:08:31.519Z,95
2017-10-14T01:09:33.952Z,95
2017-10-14T01:10:36.396Z,95
2017-10-14T01:11:38.825Z,95
2017-10-14T01:12:41.241Z,95
2017-10-14T01:13:43.676Z,96
2017-10-14T01:14:46.131Z,96
2017-10-14T01:15:48.545Z,96
2017-10-14T01:16:50.978Z,96
2017-10-14T01:17:53.414Z,96
2017-10-14T01:18:56.213Z,96
2017-10-14T01:19:58.662Z,96
2017-10-14T01:21:01.096Z,96
2017-10-14T01:22:03.529Z,96
2017-10-14T01:23:06.342Z,96
2017-10-14T01:24:08.772Z,96
2017-10-14T01:25:11.203Z,96
2017-10-14T01:26:13.642Z,96
2017-10-14T01:27:16.427Z,96
2017-10-14T01:28:18.861Z,96
2017-10-14T01:29:21.291Z,96
2017-10-14T01:30:24.087Z,96
2017-10-14T01:31:26.534Z,96
2017-10-14T01:32:28.971Z,96
2017-10-14T01:33:31.402Z,96
2017-10-14T01:34:33.830Z,95
2017-10-14T01:35:36.270Z,95
2017-10-14T01:36:39.061Z,95
2017-10-14T01:37:41.496Z,95
2017-10-14T01:38:43.933Z,95
2017-10-14T01:39:46.371Z,95
2017-10-14T01:40:48.801Z,95
2017-10-14T01:41:51.229Z,95
2017-10-14T01:42:53.661Z,96
2017-10-14T01:43:56.474Z,96
2017-10-14T01:44:58.901Z,96
2017-10-14T01:46:01.345Z,96
2017-10-14T01:47:03.780Z,96
2017-10-14T01:48:06.221Z,96
2017-10-14T01:49:08.660Z,96
2017-10-14T01:50:11.095Z,96
2017-10-14T01:51:13.531Z,96
2017-10-14T01:52:15.967Z,96
2017-10-14T01:53:18.756Z,96
2017-10-14T01:54:21.200Z,95
2017-10-14T01:55:23.627Z,95
2017-10-14T01:56:26.057Z,95
2017-10-14T01:57:28.496Z,95
2017-10-14T01:58:30.929Z,95
2017-10-14T01:59:33.357Z,95
2017-10-14T02:00:35.799Z,95
2017-10-14T02:01:38.579Z,95
2017-10-14T02:02:41.022Z,95
2017-10-14T02:03:43.460Z,95
2017-10-14T02:04:46.581Z,95
2017-10-14T02:05:49.376Z,95
2017-10-14T02:06:51.809Z,95
2017-10-14T02:07:54.234Z,95
2017-10-14T02:08:57.019Z,95
2017-10-14T02:09:59.813Z,95
2017-10-14T02:11:02.245Z,95
2017-10-14T02:12:04.676Z,95
2017-10-14T02:13:07.467Z,95
2017-10-14T02:14:09.903Z,95
2017-10-14T02:15:12.344Z,95
2017-10-14T02:16:15.146Z,95
2017-10-14T02:17:17.577Z,95
2017-10-14T02:18:20.020Z,95
2017-10-14T02:19:22.452Z,95
2017-10-14T02:20:25.235Z,95
2017-10-14T02:21:27.662Z,95
2017-10-14T02:22:30.099Z,95
2017-10-14T02:23:32.525Z,95
2017-10-14T02:24:34.964Z,95
2017-10-14T02:25:37.393Z,95
2017-10-14T02:26:39.826Z,95
2017-10-14T02:27:42.262Z,95
2017-10-14T02:28:44.709Z,95
2017-10-14T02:29:47.139Z,95
2017-10-14T02:30:49.582Z,95
2017-10-14T02:31:52.018Z,95
2017-10-14T02:32:54.460Z,95
2017-10-14T02:33:57.257Z,95
2017-10-14T02:34:59.706Z,95
2017-10-14T02:36:02.115Z,95
2017-10-14T02:37:04.566Z,95
2017-10-14T02:38:06.989Z,95
2017-10-14T02:39:09.423Z,95
2017-10-14T02:40:11.859Z,95
2017-10-14T02:41:14.307Z,95
2017-10-14T02:42:17.092Z,95
2017-10-14T02:43:19.534Z,95
2017-10-14T02:44:21.966Z,95
2017-10-14T02:45:24.406Z,95
2017-10-14T02:46:26.844Z,95
2017-10-14T02:47:29.271Z,95
2017-10-14T02:48:31.704Z,95
2017-10-14T02:49:34.152Z,95
2017-10-14T02:50:36.581Z,95
2017-10-14T02:51:39.017Z,95
2017-10-14T02:52:41.452Z,95
2017-10-14T02:53:43.891Z,95
2017-10-14T02:54:46.685Z,95
2017-10-14T02:55:49.114Z,95
2017-10-14T02:56:51.900Z,95
2017-10-14T02:57:54.694Z,95
2017-10-14T02:58:57.119Z,95
2017-10-14T02:59:59.576Z,95
2017-10-14T03:01:01.997Z,95
2017-10-14T03:02:04.476Z,95
2017-10-14T03:03:06.923Z,95
2017-10-14T03:04:09.360Z,95
2017-10-14T03:05:11.799Z,95
2017-10-14T03:06:14.239Z,95
2017-10-14T03:07:16.671Z,95
2017-10-14T03:08:19.460Z,95
2017-10-14T03:09:21.883Z,95
2017-10-14T03:10:24.321Z,95
2017-10-14T03:11:26.758Z,95
2017-10-14T03:12:29.546Z,95
2017-10-14T03:13:31.980Z,95
2017-10-14T03:14:34.415Z,95
2017-10-14T03:15:36.854Z,95
2017-10-14T03:16:39.287Z,95
2017-10-14T03:17:42.074Z,95
2017-10-14T03:18:44.507Z,95
2017-10-14T03:19:46.927Z,95
2017-10-14T03:20:49.363Z,95
2017-10-14T03:21:51.794Z,95
2017-10-14T03:22:54.235Z,95
2017-10-14T03:23:56.664Z,95
2017-10-14T03:24:59.107Z,95
2017-10-14T03:26:01.537Z,95
2017-10-14T03:27:03.975Z,95
2017-10-14T03:28:06.408Z,95
2017-10-14T03:29:09.202Z,95
2017-10-14T03:30:11.654Z,95
2017-10-14T03:31:14.071Z,95
2017-10-14T03:32:16.502Z,95
2017-10-14T03:33:19.305Z,95
2017-10-14T03:34:21.736Z,95
2017-10-14T03:35:24.193Z,95
2017-10-14T03:36:26.607Z,95
2017-10-14T03:37:29.030Z,95
2017-10-14T03:38:31.821Z,95
2017-10-14T03:39:34.255Z,95
2017-10-14T03:40:36.690Z,95
2017-10-14T03:41:39.496Z,95
2017-10-14T03:42:41.944Z,95
2017-10-14T03:43:44.368Z,95
2017-10-14T03:44:46.810Z,95
2017-10-14T03:45:49.240Z,95
2017-10-14T03:46:51.680Z,95
2017-10-14T03:47:54.115Z,95
2017-10-14T03:48:56.540Z,95
2017-10-14T03:49:58.977Z,95
2017-10-14T03:51:01.423Z,95
2017-10-14T03:52:03.849Z,95
2017-10-14T03:53:06.275Z,95
2017-10-14T03:54:08.711Z,95
2017-10-14T03:55:11.142Z,95
2017-10-14T03:56:13.573Z,95
2017-10-14T03:57:16.019Z,95
2017-10-14T03:58:18.437Z,95
2017-10-14T03:59:20.891Z,95
2017-10-14T04:00:23.333Z,95
2017-10-14T04:01:25.768Z,95
2017-10-14T04:02:28.203Z,95
2017-10-14T04:03:30.644Z,95
2017-10-14T04:04:33.070Z,95
2017-10-14T04:05:35.865Z,95
2017-10-14T04:06:38.304Z,95
2017-10-14T04:07:40.740Z,95
2017-10-14T04:08:43.163Z,95
2017-10-14T04:09:45.600Z,95
2017-10-14T04:10:48.048Z,95
2017-10-14T04:11:50.483Z,95
2017-10-14T04:12:52.920Z,95
2017-10-14T04:13:55.708Z,95
2017-10-14T04:14:58.146Z,95
2017-10-14T04:16:00.604Z,95
2017-10-14T04:17:03.025Z,95
2017-10-14T04:18:05.451Z,95
2017-10-14T04:19:08.274Z,95
2017-10-14T04:20:10.713Z,95
2017-10-14T04:21:13.147Z,95
2017-10-14T04:22:15.580Z,95
2017-10-14T04:23:18.004Z,95
2017-10-14T04:24:20.431Z,95
2017-10-14T04:25:22.882Z,95
2017-10-14T04:26:25.313Z,95
2017-10-14T04:27:27.746Z,95
2017-10-14T04:28:30.186Z,95
2017-10-14T04:29:32.619Z,95
2017-10-14T04:30:35.068Z,95
2017-10-14T04:31:37.501Z,95
2017-10-14T04:32:39.921Z,95
2017-10-14T04:33:42.355Z,95
2017-10-14T04:34:44.797Z,95
2017-10-14T04:35:47.230Z,95
2017-10-14T04:36:50.023Z,95
2017-10-14T04:37:52.816Z,95
2017-10-14T04:38:55.603Z,95
2017-10-14T04:39:58.031Z,95
2017-10-14T04:41:00.475Z,95
2017-10-14T04:42:03.261Z,95
2017-10-14T04:43:05.703Z,95
2017-10-14T04:44:08.131Z,95
2017-10-14T04:45:10.560Z,95
2017-10-14T04:46:13.354Z,95
2017-10-14T04:47:15.790Z,95
2017-10-14T04:48:18.224Z,95
2017-10-14T04:49:21.047Z,95
2017-10-14T04:50:23.472Z,95
2017-10-14T04:51:25.910Z,95
2017-10-14T04:52:28.347Z,95
2017-10-14T04:53:30.788Z,95
2017-10-14T04:54:33.222Z,95
2017-10-14T04:55:35.670Z,95
2017-10-14T04:56:38.095Z,95
2017-10-14T04:57:40.549Z,95
2017-10-14T04:58:42.976Z,94
2017-10-14T04:59:45.411Z,94
2017-10-14T05:00:48.216Z,94
2017-10-14T05:01:51.004Z,94
2017-10-14T05:02:53.433Z,94
2017-10-14T05:03:55.872Z,94
2017-10-14T05:04:58.674Z,94
2017-10-14T05:06:01.086Z,94
2017-10-14T05:07:03.527Z,94
2017-10-14T05:08:05.978Z,94
2017-10-14T05:09:08.403Z,94
2017-10-14T05:10:10.833Z,95
2017-10-14T05:11:13.620Z,95
2017-10-14T05:12:16.052Z,95
2017-10-14T05:13:18.491Z,94
2017-10-14T05:14:21.640Z,94
2017-10-14T05:15:24.059Z,94
2017-10-14T05:16:26.503Z,94
2017-10-14T05:17:28.950Z,94
2017-10-14T05:18:31.392Z,94
2017-10-14T05:19:33.832Z,94
2017-10-14T05:20:36.606Z,94
2017-10-14T05:21:39.043Z,94
2017-10-14T05:22:41.849Z,94
2017-10-14T05:23:44.283Z,94
2017-10-14T05:24:47.067Z,94
2017-10-14T05:25:49.502Z,94
2017-10-14T05:26:51.939Z,94
2017-10-14T05:27:54.375Z,95
2017-10-14T05:28:57.174Z,95
2017-10-14T05:29:59.609Z,95
2017-10-14T05:31:02.029Z,95
2017-10-14T05:32:04.480Z,95
2017-10-14T05:33:06.914Z,95
2017-10-14T05:34:09.348Z,95
2017-10-14T05:35:11.786Z,95
2017-10-14T05:36:14.582Z,95
2017-10-14T05:37:17.013Z,95
2017-10-14T05:38:19.452Z,95
2017-10-14T05:39:22.248Z,95
2017-10-14T05:40:25.051Z,95
2017-10-14T05:41:27.472Z,95
2017-10-14T05:42:29.914Z,95
2017-10-14T05:43:32.346Z,95
2017-10-14T05:44:35.137Z,95
2017-10-14T05:45:37.581Z,95
2017-10-14T05:46:40.011Z,95
2017-10-14T05:47:42.448Z,95
2017-10-14T05:48:44.907Z,95
2017-10-14T05:49:47.337Z,95
2017-10-14T05:50:49.780Z,95
2017-10-14T05:51:52.226Z,95
2017-10-14T05:52:54.662Z,95
2017-10-14T05:53:57.115Z,95
2017-10-14T05:54:59.550Z,95
2017-10-14T05:56:01.970Z,95
2017-10-14T05:57:04.764Z,95
2017-10-14T05:58:07.553Z,95
2017-10-14T05:59:09.980Z,95
2017-10-14T06:00:12.417Z,95
2017-10-14T06:01:14.854Z,95
2017-10-14T06:02:17.292Z,95
2017-10-14T06:03:19.738Z,95
2017-10-14T06:04:22.175Z,95
2017-10-14T06:05:24.601Z,95
2017-10-14T06:06:27.043Z,95
2017-10-14T06:07:29.827Z,95
2017-10-14T06:08:32.625Z,95
2017-10-14T06:09:35.058Z,95
2017-10-14T06:10:37.500Z,95
2017-10-14T06:11:39.934Z,95
2017-10-14T06:12:42.389Z,95
2017-10-14T06:13:44.822Z,95
2017-10-14T06:14:47.606Z,95
2017-10-14T06:15:50.036Z,95
2017-10-14T06:16:52.486Z,95
2017-10-14T06:17:54.916Z,95
2017-10-14T06:18:57.368Z,95
2017-10-14T06:20:00.125Z,95
2017-10-14T06:21:02.934Z,95
2017-10-14T06:22:05.722Z,95
2017-10-14T06:23:08.157Z,95
2017-10-14T06:24:10.608Z,95
2017-10-14T06:25:13.022Z,95
2017-10-14T06:26:15.453Z,95
2017-10-14T06:27:17.900Z,95
2017-10-14T06:28:20.322Z,95
2017-10-14T06:29:22.764Z,95
2017-10-14T06:30:25.200Z,95
2017-10-14T06:31:27.998Z,95
2017-10-14T06:32:30.441Z,95
2017-10-14T06:33:33.592Z,95
2017-10-14T06:34:36.027Z,95
2017-10-14T06:35:38.463Z,95
2017-10-14T06:36:40.887Z,95
2017-10-14T06:37:43.317Z,95
2017-10-14T06:38:45.762Z,95
2017-10-14T06:39:48.198Z,95
2017-10-14T06:40:50.629Z,95
2017-10-14T06:41:53.072Z,94
2017-10-14T06:42:55.507Z,94
2017-10-14T06:43:58.312Z,94
2017-10-14T06:45:00.748Z,94
2017-10-14T06:46:03.171Z,94
2017-10-14T06:47:05.604Z,94
2017-10-14T06:48:08.048Z,94
2017-10-14T06:49:10.486Z,94
2017-10-14T06:50:12.919Z,94
2017-10-14T06:51:15.347Z,94
2017-10-14T06:52:17.777Z,94
2017-10-14T06:53:20.572Z,94
2017-10-14T06:54:23.370Z,94
2017-10-14T06:55:25.791Z,94
2017-10-14T06:56:28.230Z,94
2017-10-14T06:57:30.669Z,94
2017-10-14T06:58:33.118Z,94
2017-10-14T06:59:35.562Z,94
2017-10-14T07:00:37.991Z,94
2017-10-14T07:01:40.781Z,94
2017-10-14T07:02:43.229Z,94
2017-10-14T07:03:45.663Z,94
2017-10-14T07:04:48.100Z,94
2017-10-14T07:05:50.536Z,94
2017-10-14T07:06:52.968Z,93
2017-10-14T07:07:55.408Z,93
2017-10-14T07:08:57.844Z,93
2017-10-14T07:10:00.291Z,93
2017-10-14T07:11:03.079Z,93
2017-10-14T07:12:05.517Z,93
2017-10-14T07:13:08.102Z,93
2017-10-14T07:14:10.543Z,93
2017-10-14T07:15:12.979Z,93
2017-10-14T07:16:15.415Z,93
2017-10-14T07:17:17.845Z,93
2017-10-14T07:18:20.998Z,93
2017-10-14T07:19:23.427Z,93
2017-10-14T07:20:25.869Z,93
2017-10-14T07:21:28.306Z,93
2017-10-14T07:23:00.797Z,93
2017-10-14T07:24:03.178Z,93
2017-10-14T07:25:05.572Z,93
2017-10-14T07:26:07.954Z,93
2017-10-14T07:27:10.331Z,93
2017-10-14T07:28:12.713Z,93
2017-10-14T07:29:15.458Z,93
2017-10-14T07:30:17.828Z,93
2017-10-14T07:31:20.210Z,93
2017-10-14T07:32:22.588Z,93
2017-10-14T07:33:24.968Z,93
2017-10-14T07:34:27.705Z,93
2017-10-14T07:35:30.083Z,93
2017-10-14T07:36:32.817Z,93
2017-10-14T07:37:35.201Z,93
2017-10-14T07:38:37.571Z,93
2017-10-14T07:39:39.953Z,93
2017-10-14T07:40:42.348Z,93
2017-10-14T07:41:45.437Z,93
2017-10-14T07:42:47.831Z,92
2017-10-14T07:43:50.213Z,92
2017-10-14T07:44:52.604Z,92
2017-10-14T07:45:55.347Z,92
2017-10-14T07:46:57.722Z,92
2017-10-14T07:48:00.097Z,92
2017-10-14T07:49:02.482Z,92
2017-10-14T07:50:04.861Z,92
2017-10-14T07:51:07.247Z,92
2017-10-14T07:52:09.637Z,92
2017-10-14T07:53:12.010Z,92
2017-10-14T07:54:14.395Z,92
2017-10-14T07:55:16.790Z,92
2017-10-14T07:56:19.160Z,92
2017-10-14T07:57:21.551Z,92
2017-10-14T07:58:23.930Z,92
2017-10-14T07:59:26.314Z,92
2017-10-14T08:00:28.703Z,92
2017-10-14T08:01:31.090Z,92
2017-10-14T08:02:33.456Z,92
2017-10-14T08:03:35.849Z,92
2017-10-14T08:04:38.233Z,92
2017-10-14T08:05:40.966Z,92
2017-10-14T08:06:43.704Z,92
2017-10-14T08:07:46.451Z,92
2017-10-14T08:08:48.816Z,92
2017-10-14T08:09:51.205Z,92
2017-10-14T08:10:53.587Z,92
2017-10-14T08:11:55.976Z,92
2017-10-14T08:12:58.358Z,92
2017-10-14T08:14:00.754Z,92
2017-10-14T08:15:03.135Z,92
2017-10-14T08:16:05.513Z,92
2017-10-14T08:17:07.897Z,92
2017-10-14T08:18:10.279Z,92
2017-10-14T08:19:12.659Z,92
2017-10-14T08:20:15.409Z,92
2017-10-14T08:21:17.786Z,92
2017-10-14T08:22:20.182Z,91
2017-10-14T08:23:22.559Z,91
2017-10-14T08:24:24.937Z,92
2017-10-14T08:25:27.317Z,92
2017-10-14T08:26:29.705Z,92
2017-10-14T08:27:32.467Z,92
2017-10-14T08:28:35.210Z,92
2017-10-14T08:29:37.592Z,91
2017-10-14T08:30:39.969Z,91
2017-10-14T08:31:42.707Z,91
2017-10-14T08:32:45.090Z,91
2017-10-14T08:33:47.471Z,92
2017-10-14T08:34:49.848Z,92
2017-10-14T08:35:52.238Z,92
2017-10-14T08:36:54.621Z,91
2017-10-14T08:37:57.004Z,91
2017-10-14T08:38:59.398Z,91
2017-10-14T08:40:02.130Z,91
2017-10-14T08:41:04.519Z,91
2017-10-14T08:42:06.899Z,91
2017-10-14T08:43:09.275Z,91
2017-10-14T08:44:11.663Z,91
2017-10-14T08:45:14.039Z,91
2017-10-14T08:46:16.764Z,91
2017-10-14T08:47:19.151Z,92
2017-10-14T08:48:21.532Z,91
2017-10-14T08:49:23.916Z,91
2017-10-14T08:50:26.639Z,91
2017-10-14T08:51:29.029Z,91
2017-10-14T08:52:31.419Z,91
2017-10-14T08:53:33.805Z,91
2017-10-14T08:54:36.189Z,91
2017-10-14T08:55:38.933Z,91
2017-10-14T08:56:41.313Z,91
2017-10-14T08:57:44.075Z,91
2017-10-14T08:58:46.463Z,91
2017-10-14T08:59:48.853Z,91
2017-10-14T09:00:51.585Z,91
2017-10-14T09:01:53.982Z,91
2017-10-14T09:02:56.357Z,90
2017-10-14T09:03:58.732Z,90
2017-10-14T09:05:01.118Z,90
2017-10-14T09:06:03.504Z,90
2017-10-14T09:07:05.882Z,90
2017-10-14T09:08:08.271Z,90
2017-10-14T09:09:10.649Z,90
2017-10-14T09:10:13.032Z,90
2017-10-14T09:11:15.430Z,90
2017-10-14T09:12:17.807Z,90
2017-10-14T09:13:20.182Z,90
2017-10-14T09:14:22.567Z,89
2017-10-14T09:15:24.951Z,90
2017-10-14T09:16:27.689Z,89
2017-10-14T09:17:30.079Z,89
2017-10-14T09:18:32.444Z,89
2017-10-14T09:19:34.824Z,89
2017-10-14T09:20:37.591Z,89
2017-10-14T09:21:39.975Z,89
2017-10-14T09:22:42.351Z,89
2017-10-14T09:23:44.736Z,89
2017-10-14T09:24:47.119Z,89
2017-10-14T09:25:49.515Z,88
2017-10-14T09:26:51.901Z,88
2017-10-14T09:27:54.271Z,88
2017-10-14T09:28:56.654Z,88
2017-10-14T09:29:59.049Z,88
2017-10-14T09:31:01.427Z,88
2017-10-14T09:32:03.811Z,88
2017-10-14T09:33:06.192Z,88
2017-10-14T09:34:08.580Z,88
2017-10-14T09:35:10.970Z,87
2017-10-14T09:36:13.364Z,87
2017-10-14T09:37:15.760Z,87
2017-10-14T09:38:18.138Z,87
2017-10-14T09:39:20.517Z,88
2017-10-14T09:40:22.904Z,87
2017-10-14T09:41:25.286Z,88
2017-10-14T09:42:27.666Z,88
2017-10-14T09:43:30.054Z,88
2017-10-14T09:44:32.421Z,87
2017-10-14T09:45:34.811Z,87
2017-10-14T09:46:37.208Z,87
2017-10-14T09:47:39.589Z,87
2017-10-14T09:48:41.975Z,87
2017-10-14T09:49:44.350Z,88
2017-10-14T09:50:47.092Z,87
2017-10-14T09:51:49.843Z,88
2017-10-14T09:52:52.228Z,88
2017-10-14T09:53:54.607Z,88
2017-10-14T09:54:56.991Z,88
2017-10-14T09:55:59.377Z,88
2017-10-14T09:57:02.113Z,88
2017-10-14T09:58:04.502Z,88
2017-10-14T09:59:06.878Z,88
2017-10-14T10:00:09.259Z,88
2017-10-14T10:01:11.656Z,88
2017-10-14T10:02:14.046Z,88
2017-10-14T10:03:16.433Z,88
2017-10-14T10:04:18.820Z,88
2017-10-14T10:05:21.212Z,88
2017-10-14T10:06:23.592Z,88
2017-10-14T10:07:25.969Z,88
2017-10-14T10:08:28.364Z,88
2017-10-14T10:09:30.732Z,88
2017-10-14T10:10:33.129Z,88
2017-10-14T10:11:35.505Z,88
2017-10-14T10:12:37.892Z,88
2017-10-14T10:13:40.272Z,88
2017-10-14T10:14:42.659Z,88
2017-10-14T10:15:45.040Z,89
2017-10-14T10:16:47.785Z,89
2017-10-14T10:17:50.161Z,89
2017-10-14T10:18:52.552Z,89
2017-10-14T10:19:54.937Z,88
2017-10-14T10:20:57.324Z,88
2017-10-14T10:21:59.715Z,88
2017-10-14T10:23:02.115Z,88
2017-10-14T10:24:04.853Z,88
2017-10-14T10:25:07.245Z,88
2017-10-14T10:26:09.622Z,88
2017-10-14T10:27:12.004Z,89
2017-10-14T10:28:14.381Z,89
2017-10-14T10:29:16.765Z,89
2017-10-14T10:30:19.151Z,89
2017-10-14T10:31:21.557Z,89
2017-10-14T10:32:24.289Z,89
2017-10-14T10:33:27.027Z,89
2017-10-14T10:34:29.420Z,89
2017-10-14T10:35:32.076Z,89
2017-10-14T10:36:34.811Z,89
2017-10-14T10:37:37.181Z,90
2017-10-14T10:38:39.565Z,89
2017-10-14T10:39:41.978Z,89
2017-10-14T10:40:44.344Z,89
2017-10-14T10:41:47.077Z,89
2017-10-14T10:42:49.474Z,89
2017-10-14T10:43:51.857Z,89
2017-10-14T10:44:54.255Z,89
2017-10-14T10:45:56.654Z,89
2017-10-14T10:46:59.040Z,89
2017-10-14T10:48:01.422Z,89
2017-10-14T10:49:03.806Z,89
2017-10-14T10:50:06.537Z,89
2017-10-14T10:51:08.920Z,89
2017-10-14T10:52:11.291Z,89
2017-10-14T10:53:13.685Z,89
2017-10-14T10:54:16.272Z,88
2017-10-14T10:55:18.664Z,88
2017-10-14T10:56:21.053Z,88
2017-10-14T10:57:23.438Z,88
2017-10-14T10:58:25.826Z,88
2017-10-14T10:59:28.219Z,88
2017-10-14T11:00:30.605Z,88
2017-10-14T11:01:32.980Z,88
2017-10-14T11:02:35.725Z,88
2017-10-14T11:03:38.104Z,88
2017-10-14T11:04:40.492Z,88
2017-10-14T11:05:42.898Z,87
2017-10-14T11:06:45.616Z,87
2017-10-14T11:07:48.001Z,88
2017-10-14T11:08:50.389Z,88
2017-10-14T11:09:52.769Z,87
2017-10-14T11:10:55.159Z,88
2017-10-14T11:11:57.552Z,88
2017-10-14T11:12:59.929Z,87
2017-10-14T11:14:02.693Z,88
2017-10-14T11:15:05.075Z,87
2017-10-14T11:16:07.454Z,87
2017-10-14T11:17:09.849Z,87
2017-10-14T11:18:12.228Z,88
2017-10-14T11:19:14.610Z,88
2017-10-14T11:20:16.995Z,87
2017-10-14T11:21:19.375Z,87
2017-10-14T11:22:21.767Z,88
2017-10-14T11:23:24.155Z,88
2017-10-14T11:24:26.526Z,88
2017-10-14T11:25:28.921Z,88
2017-10-14T11:26:31.316Z,88
2017-10-14T11:27:33.697Z,88
2017-10-14T11:28:36.083Z,88
2017-10-14T11:29:38.462Z,88
2017-10-14T11:30:40.847Z,88
2017-10-14T11:31:43.229Z,88
2017-10-14T11:32:45.607Z,88
2017-10-14T11:33:47.988Z,88
2017-10-14T11:34:50.373Z,88
2017-10-14T11:35:52.762Z,88
2017-10-14T11:36:55.155Z,88
2017-10-14T11:37:57.535Z,88
2017-10-14T11:38:59.915Z,89
2017-10-14T11:40:02.310Z,89
2017-10-14T11:41:04.686Z,88
2017-10-14T11:42:07.073Z,88
2017-10-14T11:43:09.461Z,89
2017-10-14T11:44:11.840Z,89
2017-10-14T11:45:14.226Z,89
2017-10-14T11:46:16.606Z,89
2017-10-14T11:47:18.988Z,89
2017-10-14T11:48:21.384Z,89
2017-10-14T11:49:23.763Z,89
2017-10-14T11:50:26.138Z,89
2017-10-14T11:51:28.530Z,89
2017-10-14T11:52:30.918Z,89
2017-10-14T11:53:33.304Z,89
2017-10-14T11:54:35.689Z,90
2017-10-14T11:55:38.070Z,89
2017-10-14T11:56:40.454Z,89
2017-10-14T11:57:42.863Z,89
2017-10-14T11:58:45.236Z,89
2017-10-14T11:59:47.612Z,90
2017-10-14T12:00:50.346Z,90
2017-10-14T12:01:52.724Z,90
2017-10-14T12:02:55.124Z,90
2017-10-14T12:03:57.502Z,89
2017-10-14T12:04:59.900Z,89
2017-10-14T12:06:02.285Z,90
2017-10-14T12:07:04.663Z,90
2017-10-14T12:08:07.069Z,90
2017-10-14T12:09:09.802Z,90
2017-10-14T12:10:12.551Z,90
2017-10-14T12:11:14.937Z,90
2017-10-14T12:12:17.305Z,89
2017-10-14T12:13:19.694Z,90
2017-10-14T12:14:22.082Z,90
2017-10-14T12:15:24.469Z,90
2017-10-14T12:16:26.880Z,89
2017-10-14T12:17:29.239Z,89
2017-10-14T12:18:31.970Z,89
2017-10-14T12:19:34.357Z,89
2017-10-14T12:20:36.745Z,90
2017-10-14T12:21:39.125Z,90
2017-10-14T12:22:41.529Z,90
2017-10-14T12:23:43.901Z,90
2017-10-14T12:24:46.283Z,90
2017-10-14T12:25:48.668Z,89
2017-10-14T12:26:51.059Z,89
2017-10-14T12:27:53.787Z,89
2017-10-14T12:28:56.175Z,90
2017-10-14T12:29:58.546Z,90
2017-10-14T12:31:00.940Z,90
2017-10-14T12:32:03.326Z,90
2017-10-14T12:33:05.702Z,90
2017-10-14T12:34:08.434Z,90
2017-10-14T12:35:10.833Z,90
2017-10-14T12:36:13.211Z,90
2017-10-14T12:37:15.958Z,90
2017-10-14T12:38:18.320Z,90
2017-10-14T12:39:20.705Z,90
2017-10-14T12:40:23.094Z,90
2017-10-14T12:41:25.477Z,90
2017-10-14T12:42:28.228Z,90
2017-10-14T12:43:30.606Z,90
2017-10-14T12:44:32.994Z,90
2017-10-14T12:45:35.738Z,90
2017-10-14T12:46:38.122Z,90
2017-10-14T12:47:40.493Z,90
2017-10-14T12:48:42.882Z,90
2017-10-14T12:49:45.279Z,90
2017-10-14T12:50:48.027Z,90
2017-10-14T12:51:50.418Z,90
2017-10-14T12:52:52.798Z,90
2017-10-14T12:53:55.181Z,90
2017-10-14T12:54:57.578Z,90
2017-10-14T12:55:59.960Z,91
2017-10-14T12:57:02.708Z,91
2017-10-14T12:58:05.093Z,91
2017-10-14T12:59:07.477Z,91
2017-10-14T13:00:09.867Z,91
2017-10-14T13:01:12.593Z,91
2017-10-14T13:02:15.370Z,91
2017-10-14T13:03:17.755Z,91
2017-10-14T13:04:20.142Z,91
2017-10-14T13:05:22.872Z,91
2017-10-14T13:06:25.610Z,91
2017-10-14T13:07:27.995Z,90
2017-10-14T13:08:30.374Z,90
2017-10-14T13:09:32.749Z,90
2017-10-14T13:10:35.133Z,90
2017-10-14T13:11:37.525Z,90
2017-10-14T13:12:39.921Z,91
2017-10-14T13:13:42.296Z,91
2017-10-14T13:14:44.686Z,91
2017-10-14T13:15:47.065Z,91
2017-10-14T13:16:49.444Z,90
2017-10-14T13:17:51.842Z,90
2017-10-14T13:18:54.224Z,90
2017-10-14T13:19:56.597Z,90
2017-10-14T13:20:58.994Z,90
2017-10-14T13:22:01.362Z,90
2017-10-14T13:23:03.757Z,90
2017-10-14T13:24:06.143Z,90
2017-10-14T13:25:08.519Z,90
2017-10-14T13:26:10.913Z,90
2017-10-14T13:27:13.652Z,90
2017-10-14T13:28:16.027Z,90
2017-10-14T13:29:18.418Z,90
2017-10-14T13:30:20.808Z,89
2017-10-14T13:31:23.201Z,90
2017-10-14T13:32:25.932Z,90
2017-10-14T13:33:28.319Z,90
2017-10-14T13:34:30.704Z,90
2017-10-14T13:35:33.080Z,90
2017-10-14T13:36:35.823Z,90
2017-10-14T13:37:38.210Z,90
2017-10-14T13:38:40.592Z,90
2017-10-14T13:39:42.975Z,90
2017-10-14T13:40:45.364Z,89
2017-10-14T13:41:47.749Z,89
2017-10-14T13:42:50.493Z,90
2017-10-14T13:43:52.863Z,89
2017-10-14T13:44:55.261Z,89
2017-10-14T13:45:57.643Z,89
2017-10-14T13:47:00.374Z,89
2017-10-14T13:48:02.755Z,89
2017-10-14T13:49:05.143Z,90
2017-10-14T13:50:07.535Z,90
2017-10-14T13:51:10.280Z,90
2017-10-14T13:52:12.667Z,90
2017-10-14T13:53:15.055Z,90
2017-10-14T13:54:17.438Z,89
2017-10-14T13:55:19.833Z,89
2017-10-14T13:56:22.212Z,89
2017-10-14T13:57:24.601Z,89
2017-10-14T13:58:27.342Z,89
2017-10-14T13:59:30.070Z,89
2017-10-14T14:00:32.448Z,89
2017-10-14T14:01:35.187Z,89
2017-10-14T14:02:37.915Z,89
2017-10-14T14:03:40.299Z,89
2017-10-14T14:04:42.678Z,89
2017-10-14T14:05:45.062Z,90
2017-10-14T14:06:47.452Z,90
2017-10-14T14:07:49.847Z,90
2017-10-14T14:08:52.215Z,90
2017-10-14T14:09:54.610Z,90
2017-10-14T14:10:56.996Z,89
2017-10-14T14:11:59.380Z,90
2017-10-14T14:13:01.767Z,90
2017-10-14T14:14:04.149Z,90
2017-10-14T14:15:06.545Z,90
2017-10-14T14:16:08.915Z,90
2017-10-14T14:17:11.300Z,90
2017-10-14T14:18:13.677Z,90
2017-10-14T14:19:16.065Z,90
2017-10-14T14:20:18.841Z,90
2017-10-14T14:21:21.221Z,90
2017-10-14T14:22:23.607Z,91
2017-10-14T14:23:25.995Z,91
2017-10-14T14:24:28.388Z,90
2017-10-14T14:25:30.775Z,90
2017-10-14T14:26:33.161Z,90
2017-10-14T14:27:35.948Z,90
2017-10-14T14:28:39.502Z,90
2017-10-14T14:29:42.437Z,90
2017-10-14T14:30:45.754Z,91
2017-10-14T14:31:48.405Z,91
2017-10-14T14:32:50.798Z,91
2017-10-14T14:33:53.186Z,91
2017-10-14T14:34:55.562Z,91
2017-10-14T14:35:57.962Z,91
2017-10-14T14:37:00.339Z,91
2017-10-14T14:38:02.740Z,91
2017-10-14T14:39:05.118Z,91
2017-10-14T14:40:07.511Z,91
2017-10-14T14:41:09.886Z,91
2017-10-14T14:42:12.275Z,91
2017-10-14T14:43:14.651Z,91
2017-10-14T14:44:17.038Z,91
2017-10-14T14:45:19.414Z,91
2017-10-14T14:46:21.797Z,91
2017-10-14T14:47:24.179Z,91
2017-10-14T14:48:26.913Z,91
2017-10-14T14:49:29.283Z,91
2017-10-14T14:50:31.672Z,91
2017-10-14T14:51:34.049Z,91